createdAt,value
2019-05-30T00:02:35.400Z,19.8
2019-05-30T00:04:44.097Z,26.1
2019-05-30T00:06:52.468Z,26.3
2019-05-30T00:08:52.543Z,32.5
2019-05-30T00:10:35.427Z,29.5
2019-05-30T00:12:35.932Z,28
2019-05-30T00:14:35.580Z,31.3
2019-05-30T00:16:35.978Z,26.8
2019-05-30T00:18:35.601Z,34.3
2019-05-30T00:20:36.179Z,32.2
2019-05-30T00:22:35.614Z,35.8
2019-05-30T00:24:36.137Z,41.1
2019-05-30T00:26:36.735Z,44
2019-05-30T00:28:36.160Z,38
2019-05-30T00:30:35.732Z,34.9
2019-05-30T00:32:36.206Z,36.1
2019-05-30T00:34:35.901Z,34
2019-05-30T00:36:35.370Z,41.2
2019-05-30T00:38:36.042Z,41.7
2019-05-30T00:40:35.623Z,35.9
2019-05-30T00:42:36.138Z,36
2019-05-30T00:44:35.671Z,33.1
2019-05-30T00:46:36.231Z,32.3
2019-05-30T00:48:36.779Z,38
2019-05-30T00:50:36.295Z,36.9
2019-05-30T00:52:35.646Z,37.4
2019-05-30T00:54:36.156Z,44.7
2019-05-30T00:56:35.714Z,36.2
2019-05-30T00:58:36.169Z,41.9
2019-05-30T01:00:44.355Z,39.9
2019-05-30T01:02:35.771Z,46.9
2019-05-30T01:04:35.230Z,35.4
2019-05-30T01:06:35.801Z,36.1
2019-05-30T01:08:36.169Z,40.2
2019-05-30T01:10:36.771Z,43.2
2019-05-30T01:12:35.207Z,41.7
2019-05-30T01:14:35.606Z,50.7
2019-05-30T01:16:36.162Z,49.5
2019-05-30T01:18:35.721Z,27.5
2019-05-30T01:20:36.311Z,30.9
2019-05-30T01:22:35.692Z,29.6
2019-05-30T01:24:35.204Z,29.5
2019-05-30T01:26:35.676Z,43.2
2019-05-30T01:28:36.193Z,49.6
2019-05-30T01:30:35.824Z,34.7
2019-05-30T01:32:35.419Z,39.5
2019-05-30T01:34:34.991Z,33.5
2019-05-30T01:36:35.614Z,33.6
2019-05-30T01:38:36.098Z,30.5
2019-05-30T01:40:35.794Z,35.1
2019-05-30T01:42:36.181Z,42.5
2019-05-30T01:44:36.686Z,41.4
2019-05-30T01:46:36.277Z,43.3
2019-05-30T01:48:35.752Z,40.9
2019-05-30T01:50:36.219Z,38.6
2019-05-30T01:52:35.629Z,41.8
2019-05-30T01:54:36.102Z,37.6
2019-05-30T01:56:35.675Z,32.6
2019-05-30T01:58:35.137Z,29.3
2019-05-30T02:00:35.814Z,47.6
2019-05-30T02:02:36.347Z,43.4
2019-05-30T02:04:44.173Z,31.7
2019-05-30T02:06:47.530Z,28.4
2019-05-30T02:08:43.989Z,27.7
2019-05-30T02:10:44.548Z,42.1
2019-05-30T02:12:36.009Z,24.7
2019-05-30T02:14:36.489Z,23
2019-05-30T02:16:35.158Z,37.9
2019-05-30T02:18:35.693Z,32.5
2019-05-30T02:20:35.261Z,28.9
2019-05-30T02:22:35.778Z,34.1
2019-05-30T02:24:35.236Z,25.5
2019-05-30T02:26:36.716Z,32
2019-05-30T02:28:36.214Z,35.3
2019-05-30T02:30:35.839Z,24.9
2019-05-30T02:32:35.319Z,30.7
2019-05-30T02:34:35.819Z,20.9
2019-05-30T02:36:36.384Z,35.1
2019-05-30T02:38:35.788Z,24
2019-05-30T02:40:36.302Z,34.7
2019-05-30T02:42:35.760Z,32
2019-05-30T02:44:35.264Z,30
2019-05-30T02:46:36.815Z,20.3
2019-05-30T02:50:36.684Z,27.1
2019-05-30T02:52:36.152Z,33
2019-05-30T02:54:35.669Z,19.2
2019-05-30T02:56:35.604Z,27.9
2019-05-30T02:58:35.147Z,22.9
2019-05-30T03:00:35.814Z,16.4
2019-05-30T03:02:35.561Z,21.5
2019-05-30T03:04:36.176Z,20.6
2019-05-30T03:06:36.320Z,20.2
2019-05-30T03:08:36.030Z,19.1
2019-05-30T03:10:35.717Z,14.4
2019-05-30T03:12:36.300Z,11.3
2019-05-30T03:14:35.932Z,3.4
2019-05-30T03:16:35.646Z,3
2019-05-30T03:18:35.341Z,3.7
2019-05-30T03:20:36.122Z,2.6
2019-05-30T03:22:35.690Z,1.4
2019-05-30T03:24:36.280Z,1.4
2019-05-30T03:26:35.989Z,1.4
2019-05-30T03:28:35.546Z,1.3
2019-05-30T03:30:36.284Z,0.9
2019-05-30T03:33:16.266Z,0.8
2019-05-30T03:34:36.301Z,1
2019-05-30T03:36:36.021Z,0.9
2019-05-30T03:38:35.747Z,0.7
2019-05-30T03:40:36.454Z,2.2
2019-05-30T03:42:35.155Z,1
2019-05-30T03:46:48.182Z,0.5
2019-05-30T03:48:36.480Z,0.7
2019-05-30T03:50:36.091Z,1
2019-05-30T03:52:35.735Z,0.7
2019-05-30T03:54:35.868Z,0.9
2019-05-30T03:56:36.498Z,0.8
2019-05-30T03:58:36.157Z,0.9
2019-05-30T04:02:58.625Z,0.9
2019-05-30T04:04:35.404Z,0.8
2019-05-30T04:06:36.140Z,0.8
2019-05-30T04:08:36.783Z,0.6
2019-05-30T04:10:36.353Z,0.8
2019-05-30T04:12:36.067Z,0.8
2019-05-30T04:14:35.503Z,0.6
2019-05-30T04:16:35.232Z,0.7
2019-05-30T04:18:35.015Z,0.8
2019-05-30T04:20:35.772Z,0.7
2019-05-30T04:22:36.365Z,0.8
2019-05-30T04:24:35.823Z,0.7
2019-05-30T04:26:35.587Z,0.6
2019-05-30T04:28:36.158Z,1.1
2019-05-30T04:30:35.773Z,1
2019-05-30T04:32:36.321Z,0.6
2019-05-30T04:34:35.794Z,0.6
2019-05-30T04:36:35.518Z,0.8
2019-05-30T04:38:36.033Z,0.9
2019-05-30T04:40:35.694Z,0.7
2019-05-30T04:42:35.337Z,0.6
2019-05-30T04:44:35.928Z,0.6
2019-05-30T04:46:35.697Z,0.8
2019-05-30T04:48:35.359Z,0.9
2019-05-30T04:50:35.075Z,0.6
2019-05-30T04:52:35.759Z,0.5
2019-05-30T04:54:36.226Z,0.5
2019-05-30T04:56:36.394Z,0.5
2019-05-30T04:58:42.650Z,0.4
2019-05-30T05:02:36.833Z,0.5
2019-05-30T05:04:36.197Z,0.6
2019-05-30T05:06:35.826Z,0.5
2019-05-30T05:08:35.465Z,0.6
2019-05-30T05:10:36.171Z,0.5
2019-05-30T05:12:35.772Z,0.5
2019-05-30T05:14:36.241Z,0.4
2019-05-30T05:16:36.755Z,0.4
2019-05-30T05:18:35.475Z,0.4
2019-05-30T05:20:36.675Z,1.9
2019-05-30T05:22:36.249Z,1.3
2019-05-30T05:24:35.614Z,10.4
2019-05-30T05:26:36.199Z,2.4
2019-05-30T05:28:35.602Z,2.4
2019-05-30T05:30:36.105Z,2.2
2019-05-30T05:32:35.788Z,1.6
2019-05-30T05:34:35.166Z,2.3
2019-05-30T05:36:35.701Z,3.2
2019-05-30T05:38:36.443Z,9.6
2019-05-30T05:40:35.955Z,6.1
2019-05-30T05:42:35.572Z,9.6
2019-05-30T05:44:34.902Z,5
2019-05-30T05:46:36.444Z,9.6
2019-05-30T05:48:35.816Z,9.9
2019-05-30T05:50:36.328Z,8.3
2019-05-30T05:52:35.778Z,9.8
2019-05-30T05:54:35.159Z,6.8
2019-05-30T05:56:36.713Z,8.7
2019-05-30T05:58:36.649Z,10.1
2019-05-30T06:00:36.127Z,14.2
2019-05-30T06:02:35.670Z,15
2019-05-30T06:04:35.990Z,15.7
2019-05-30T06:06:35.548Z,16.1
2019-05-30T06:08:34.986Z,16.9
2019-05-30T06:10:35.531Z,19.4
2019-05-30T06:12:35.962Z,18.9
2019-05-30T06:14:35.635Z,17.8
2019-05-30T06:16:35.251Z,15.4
2019-05-30T06:18:35.799Z,15.4
2019-05-30T06:20:35.359Z,16.3
2019-05-30T06:22:35.804Z,17
2019-05-30T06:24:36.249Z,20.1
2019-05-30T06:26:35.923Z,21.5
2019-05-30T06:28:36.334Z,19.1
2019-05-30T06:30:35.938Z,16.5
2019-05-30T06:32:35.421Z,15.7
2019-05-30T06:34:39.923Z,12.9
2019-05-30T06:36:35.840Z,17.4
2019-05-30T06:38:36.391Z,18.4
2019-05-30T06:40:36.042Z,21.7
2019-05-30T06:42:35.806Z,17.9
2019-05-30T06:44:36.361Z,23.9
2019-05-30T06:46:36.116Z,25.2
2019-05-30T06:48:35.561Z,28.5
2019-05-30T06:50:36.128Z,28.6
2019-05-30T06:52:35.560Z,25.9
2019-05-30T06:54:36.121Z,24.7
2019-05-30T06:56:36.691Z,22.7
2019-05-30T06:58:48.917Z,24.2
2019-05-30T07:00:36.558Z,22.4
2019-05-30T07:02:36.073Z,25.2
2019-05-30T07:04:52.254Z,22.6
2019-05-30T07:06:37.003Z,24.6
2019-05-30T07:08:36.025Z,24
2019-05-30T07:10:36.468Z,23.8
2019-05-30T07:12:36.055Z,23.7
2019-05-30T07:14:35.468Z,22.6
2019-05-30T07:16:36.152Z,24.3
2019-05-30T07:18:37.053Z,23.4
2019-05-30T07:20:35.678Z,25.1
2019-05-30T07:22:35.268Z,20.7
2019-05-30T07:24:35.767Z,20.5
2019-05-30T07:26:36.434Z,20.6
2019-05-30T07:28:36.055Z,21.4
2019-05-30T07:30:35.610Z,21.6
2019-05-30T07:32:36.114Z,25.8
2019-05-30T07:34:35.602Z,22.6
2019-05-30T07:36:36.470Z,22.5
2019-05-30T07:38:35.943Z,21.3
2019-05-30T07:40:36.519Z,23.1
2019-05-30T07:42:35.993Z,22.2
2019-05-30T07:44:36.551Z,20.9
2019-05-30T07:46:35.431Z,20.2
2019-05-30T07:48:35.136Z,20.2
2019-05-30T07:50:35.658Z,21.3
2019-05-30T07:52:36.162Z,18.9
2019-05-30T07:54:35.591Z,19.8
2019-05-30T07:56:37.261Z,20.5
2019-05-30T07:58:37.550Z,20.7
2019-05-30T08:02:36.029Z,19.9
2019-05-30T08:04:35.934Z,17
2019-05-30T08:06:36.036Z,17.8
2019-05-30T08:08:36.501Z,16.1
2019-05-30T08:10:36.291Z,17.3
2019-05-30T08:12:36.422Z,17
2019-05-30T08:14:37.618Z,16.1
2019-05-30T08:16:36.406Z,18
2019-05-30T08:18:36.138Z,16.2
2019-05-30T08:20:36.181Z,18.9
2019-05-30T08:22:36.425Z,17.4
2019-05-30T08:24:36.698Z,15.8
2019-05-30T08:26:36.636Z,16.2
2019-05-30T08:28:36.571Z,15.9
2019-05-30T08:30:36.893Z,17.2
2019-05-30T08:32:37.104Z,16.3
2019-05-30T08:34:35.147Z,16.8
2019-05-30T08:36:36.766Z,16.6
2019-05-30T08:38:35.725Z,16.3
2019-05-30T08:40:35.793Z,16.3
2019-05-30T08:42:35.721Z,14.2
2019-05-30T08:44:36.089Z,16
2019-05-30T08:46:36.127Z,18.1
2019-05-30T08:48:36.476Z,16.7
2019-05-30T08:50:44.538Z,16.6
2019-05-30T08:52:36.710Z,16
2019-05-30T08:54:36.662Z,15.4
2019-05-30T08:56:36.760Z,14.9
2019-05-30T08:58:37.021Z,15
2019-05-30T09:00:35.908Z,16.9
2019-05-30T09:02:36.549Z,16.7
2019-05-30T09:04:35.951Z,15.8
2019-05-30T09:06:36.034Z,16.1
2019-05-30T09:08:36.483Z,16.4
2019-05-30T09:10:39.204Z,15
2019-05-30T09:12:39.703Z,14.9
2019-05-30T09:14:39.161Z,15.3
2019-05-30T09:16:36.088Z,13.8
2019-05-30T09:18:39.836Z,13.9
2019-05-30T09:20:39.745Z,15.1
2019-05-30T09:22:39.626Z,13.2
2019-05-30T09:24:35.687Z,13.8
2019-05-30T09:26:36.161Z,15
2019-05-30T09:28:37.713Z,13.5
2019-05-30T09:30:38.183Z,13.1
2019-05-30T09:32:34.414Z,13.8
2019-05-30T09:34:34.103Z,12.1
2019-05-30T09:36:33.716Z,11.1
2019-05-30T09:38:33.298Z,12.4
2019-05-30T09:52:45.590Z,12.3
2019-05-30T09:54:36.901Z,10.2
2019-05-30T09:56:36.580Z,11.7
2019-05-30T09:58:36.411Z,9.6
2019-05-30T10:00:36.171Z,8.9
2019-05-30T10:02:35.761Z,9.6
2019-05-30T10:04:35.600Z,9.1
2019-05-30T10:06:35.128Z,7.8
2019-05-30T10:08:35.878Z,7.6
2019-05-30T10:10:36.361Z,7.1
2019-05-30T10:12:35.978Z,6.1
2019-05-30T10:14:35.677Z,8.3
2019-05-30T10:16:35.440Z,7.5
2019-05-30T10:18:35.260Z,6.9
2019-05-30T10:20:36.011Z,8.1
2019-05-30T10:22:37.225Z,6.6
2019-05-30T10:24:36.690Z,8.7
2019-05-30T10:26:37.892Z,8.2
2019-05-30T10:28:38.339Z,6.6
2019-05-30T10:30:37.287Z,5.7
2019-05-30T10:32:36.667Z,5.7
2019-05-30T10:34:37.105Z,7.5
2019-05-30T10:36:46.085Z,8.3
2019-05-30T10:38:36.728Z,6.9
2019-05-30T10:40:36.442Z,4.2
2019-05-30T10:42:36.085Z,3.4
2019-05-30T10:44:35.738Z,4.6
2019-05-30T10:46:36.342Z,6.4
2019-05-30T10:48:35.929Z,6.7
2019-05-30T10:50:35.576Z,5.6
2019-05-30T10:52:35.226Z,3.9
2019-05-30T10:54:36.142Z,5.3
2019-05-30T10:56:35.795Z,4.3
2019-05-30T10:58:36.895Z,3
2019-05-30T11:00:35.821Z,3.8
2019-05-30T11:02:37.106Z,5.6
2019-05-30T11:04:36.883Z,5.3
2019-05-30T11:06:36.727Z,4.3
2019-05-30T11:08:43.363Z,3.5
2019-05-30T11:10:41.114Z,3.7
2019-05-30T11:12:38.083Z,5.7
2019-05-30T11:14:40.104Z,4.6
2019-05-30T11:16:35.067Z,5.4
2019-05-30T11:18:40.599Z,6
2019-05-30T11:20:38.191Z,7.2
2019-05-30T11:22:38.755Z,6.1
2019-05-30T11:24:41.875Z,7.1
2019-05-30T11:26:39.495Z,7.9
2019-05-30T11:28:39.951Z,7.2
2019-05-30T11:30:39.094Z,7.7
2019-05-30T11:32:37.279Z,7.4
2019-05-30T11:34:37.145Z,8.3
2019-05-30T11:36:36.071Z,6.4
2019-05-30T11:38:37.255Z,7
2019-05-30T11:40:36.621Z,6
2019-05-30T11:42:36.451Z,6.7
2019-05-30T11:44:36.306Z,7.4
2019-05-30T11:46:36.114Z,6.4
2019-05-30T11:48:37.610Z,6.1
2019-05-30T11:50:37.704Z,6.3
2019-05-30T11:52:36.819Z,6.2
2019-05-30T11:54:36.770Z,6
2019-05-30T11:56:36.852Z,6.2
2019-05-30T11:58:36.903Z,5.7
2019-05-30T12:02:36.697Z,6.2
2019-05-30T12:04:36.325Z,5.4
2019-05-30T12:06:36.368Z,6.1
2019-05-30T12:08:36.698Z,5.5
2019-05-30T12:10:37.275Z,6.2
2019-05-30T12:12:36.695Z,6.6
2019-05-30T12:14:36.499Z,6.6
2019-05-30T12:16:37.347Z,6.1
2019-05-30T12:18:37.620Z,5.4
2019-05-30T12:20:36.237Z,5.8
2019-05-30T12:22:35.941Z,4.7
2019-05-30T12:24:36.312Z,4.5
2019-05-30T12:26:36.696Z,5.2
2019-05-30T12:28:36.255Z,5.6
2019-05-30T12:30:36.014Z,5
2019-05-30T12:32:35.483Z,4.8
2019-05-30T12:34:35.203Z,4
2019-05-30T12:36:35.862Z,5.1
2019-05-30T12:38:35.448Z,5.5
2019-05-30T12:40:36.177Z,5.1
2019-05-30T12:42:35.710Z,6.2
2019-05-30T12:44:35.461Z,6.1
2019-05-30T12:46:36.039Z,5.7
2019-05-30T12:48:35.641Z,6.2
2019-05-30T12:50:36.221Z,5.4
2019-05-30T12:52:35.659Z,5.1
2019-05-30T12:54:36.287Z,5.2
2019-05-30T12:56:35.797Z,5.8
2019-05-30T12:58:36.478Z,6
2019-05-30T13:00:34.990Z,4.5
2019-05-30T13:02:35.489Z,5.1
2019-05-30T13:04:36.191Z,4.9
2019-05-30T13:06:35.600Z,5.2
2019-05-30T13:08:36.371Z,5.8
2019-05-30T13:10:35.982Z,5.1
2019-05-30T13:12:35.464Z,4.8
2019-05-30T13:14:36.566Z,5
2019-05-30T13:16:36.176Z,4.8
2019-05-30T13:18:36.031Z,5.7
2019-05-30T13:20:36.482Z,5.8
2019-05-30T13:22:35.980Z,5.8
2019-05-30T13:24:36.702Z,4.7
2019-05-30T13:26:36.249Z,5.3
2019-05-30T13:28:36.000Z,5.9
2019-05-30T13:30:36.043Z,6.2
2019-05-30T13:32:34.064Z,5.8
2019-05-30T13:34:35.734Z,5.6
2019-05-30T13:36:35.438Z,5.9
2019-05-30T13:38:35.142Z,6
2019-05-30T13:40:35.709Z,5.5
2019-05-30T13:42:35.297Z,5.5
2019-05-30T13:44:36.193Z,5.3
2019-05-30T13:46:36.208Z,5.2
2019-05-30T13:48:34.746Z,6
2019-05-30T13:50:36.468Z,4.6
2019-05-30T13:52:36.017Z,5.9
2019-05-30T13:54:35.865Z,5.6
2019-05-30T13:56:35.536Z,6.2
2019-05-30T13:58:35.274Z,5.3
2019-05-30T14:02:36.087Z,5.4
2019-05-30T14:04:35.812Z,6.6
2019-05-30T14:06:36.019Z,6.2
2019-05-30T14:08:42.224Z,5.5
2019-05-30T14:10:35.938Z,5.9
2019-05-30T14:12:35.997Z,5.2
2019-05-30T14:14:35.959Z,5.6
2019-05-30T14:16:36.098Z,5.7
2019-05-30T14:18:37.098Z,5.4
2019-05-30T14:20:36.957Z,5.1
2019-05-30T14:22:36.780Z,4.9
2019-05-30T14:24:36.621Z,5
2019-05-30T14:26:36.302Z,5.3
2019-05-30T14:28:35.931Z,5.1
2019-05-30T14:30:35.472Z,5.5
2019-05-30T14:32:34.956Z,5.3
2019-05-30T14:34:35.785Z,5.3
2019-05-30T14:36:36.390Z,5.3
2019-05-30T14:38:36.110Z,5.5
2019-05-30T14:40:35.564Z,5.3
2019-05-30T14:42:36.201Z,5.3
2019-05-30T14:44:36.175Z,4.9
2019-05-30T14:46:35.681Z,5.3
2019-05-30T14:48:35.488Z,5
2019-05-30T14:50:36.222Z,5.4
2019-05-30T14:52:35.624Z,5.6
2019-05-30T14:54:36.209Z,4.9
2019-05-30T14:56:35.733Z,4.2
2019-05-30T14:58:36.307Z,4.5
2019-05-30T15:00:35.729Z,4.9
2019-05-30T15:02:36.411Z,4.3
2019-05-30T15:04:36.004Z,4.6
2019-05-30T15:06:35.499Z,4.3
2019-05-30T15:08:36.509Z,4.7
2019-05-30T15:10:36.010Z,4.8
2019-05-30T15:12:35.591Z,4.9
2019-05-30T15:14:36.842Z,5.8
2019-05-30T15:16:36.290Z,5.2
2019-05-30T15:18:36.498Z,4.6
2019-05-30T15:20:36.134Z,5.4
2019-05-30T15:22:35.619Z,4
2019-05-30T15:24:36.366Z,4.8
2019-05-30T15:26:35.983Z,4.7
2019-05-30T15:28:36.561Z,4.4
2019-05-30T15:30:36.173Z,4.7
2019-05-30T15:32:35.681Z,4.8
2019-05-30T15:34:35.615Z,4.2
2019-05-30T15:36:35.207Z,4.1
2019-05-30T15:38:35.944Z,4.4
2019-05-30T15:40:36.539Z,4.1
2019-05-30T15:42:35.970Z,5
2019-05-30T15:44:35.572Z,4.1
2019-05-30T15:46:36.472Z,4.6
2019-05-30T15:48:36.244Z,4.6
2019-05-30T15:50:36.807Z,4.5
2019-05-30T15:52:36.269Z,5.1
2019-05-30T15:54:35.917Z,4.7
2019-05-30T15:56:35.546Z,5.1
2019-05-30T15:58:36.440Z,4.8
2019-05-30T16:02:36.317Z,5.1
2019-05-30T16:04:36.037Z,5.3
2019-05-30T16:06:35.689Z,5.1
2019-05-30T16:08:35.379Z,4.8
2019-05-30T16:10:37.214Z,4.5
2019-05-30T16:12:36.810Z,4.8
2019-05-30T16:14:36.499Z,4.6
2019-05-30T16:16:40.679Z,4.3
2019-05-30T16:18:36.252Z,4.2
2019-05-30T16:20:33.920Z,3.7
2019-05-30T16:22:33.784Z,4.3
2019-05-30T16:24:33.534Z,3.6
2019-05-30T16:26:36.086Z,4.2
2019-05-30T16:28:36.034Z,4.3
2019-05-30T16:30:38.842Z,5
2019-05-30T16:32:37.262Z,4.8
2019-05-30T16:34:36.171Z,4.3
2019-05-30T16:36:36.326Z,5
2019-05-30T16:38:36.441Z,4.8
2019-05-30T16:40:36.196Z,6.2
2019-05-30T16:42:35.819Z,5.2
2019-05-30T16:44:35.607Z,5.6
2019-05-30T16:46:36.277Z,6.2
2019-05-30T16:48:35.973Z,5.1
2019-05-30T16:50:36.147Z,6.1
2019-05-30T16:52:35.737Z,7
2019-05-30T16:54:35.514Z,6.9
2019-05-30T16:56:36.083Z,7.3
2019-05-30T16:58:35.722Z,7.8
2019-05-30T17:00:35.367Z,6.6
2019-05-30T17:02:36.012Z,7.3
2019-05-30T17:04:35.597Z,7.8
2019-05-30T17:06:36.250Z,7.8
2019-05-30T17:08:36.227Z,7.7
2019-05-30T17:10:35.897Z,6.7
2019-05-30T17:12:35.506Z,7.8
2019-05-30T17:14:36.035Z,7.5
2019-05-30T17:16:35.552Z,6.6
2019-05-30T17:18:35.309Z,7.1
2019-05-30T17:20:36.428Z,5.8
2019-05-30T17:22:34.671Z,4.7
2019-05-30T17:24:36.300Z,4.9
2019-05-30T17:26:35.753Z,4.7
2019-05-30T17:28:36.315Z,3.8
2019-05-30T17:30:36.043Z,3.6
2019-05-30T17:32:36.492Z,3.3
2019-05-30T17:34:36.337Z,3.7
2019-05-30T17:36:35.887Z,3.4
2019-05-30T17:38:35.440Z,3.4
2019-05-30T17:40:46.302Z,3.2
2019-05-30T17:42:36.535Z,3.4
2019-05-30T17:44:36.168Z,3.2
2019-05-30T17:46:35.588Z,3.2
2019-05-30T17:48:36.494Z,3
2019-05-30T17:50:34.597Z,3.4
2019-05-30T17:52:36.002Z,3.5
2019-05-30T17:54:36.573Z,3.6
2019-05-30T17:56:35.108Z,3.6
2019-05-30T17:58:35.637Z,3.1
2019-05-30T18:00:36.353Z,4.2
2019-05-30T18:02:35.969Z,3.5
2019-05-30T18:04:35.707Z,4.2
2019-05-30T18:06:35.460Z,3.6
2019-05-30T18:08:36.010Z,4.3
2019-05-30T18:10:36.713Z,3.1
2019-05-30T18:12:36.329Z,4.2
2019-05-30T18:14:35.901Z,3.5
2019-05-30T18:16:36.359Z,4.5
2019-05-30T18:18:35.922Z,4.8
2019-05-30T18:20:48.869Z,3.9
2019-05-30T18:22:35.924Z,3.1
2019-05-30T18:24:35.542Z,3.6
2019-05-30T18:26:36.115Z,3.7
2019-05-30T18:28:35.578Z,3.6
2019-05-30T18:30:35.210Z,3.2
2019-05-30T18:32:35.666Z,4.1
2019-05-30T18:34:35.380Z,4.3
2019-05-30T18:36:35.942Z,4.5
2019-05-30T18:38:35.426Z,4.3
2019-05-30T18:40:36.018Z,4.5
2019-05-30T18:42:35.562Z,4.3
2019-05-30T18:44:35.566Z,3.8
2019-05-30T18:46:38.861Z,3.8
2019-05-30T18:48:36.363Z,4.1
2019-05-30T18:50:36.068Z,4
2019-05-30T18:52:37.027Z,4
2019-05-30T18:54:37.038Z,3.4
2019-05-30T18:56:37.198Z,3.7
2019-05-30T18:58:35.656Z,3
2019-05-30T19:00:35.675Z,3.2
2019-05-30T19:02:35.864Z,3.1
2019-05-30T19:04:34.011Z,3.8
2019-05-30T19:06:36.553Z,3.9
2019-05-30T19:08:36.384Z,2.7
2019-05-30T19:10:36.891Z,3.6
2019-05-30T19:12:36.838Z,3.4
2019-05-30T19:14:37.594Z,3.7
2019-05-30T19:16:36.263Z,3.2
2019-05-30T19:18:35.970Z,3.6
2019-05-30T19:20:36.701Z,3.8
2019-05-30T19:22:36.821Z,3.3
2019-05-30T19:24:36.602Z,3.9
2019-05-30T19:26:37.003Z,3.7
2019-05-30T19:28:36.856Z,3.3
2019-05-30T19:30:35.381Z,3.3
2019-05-30T19:32:37.164Z,3.7
2019-05-30T19:34:37.137Z,3.1
2019-05-30T19:36:35.630Z,2.7
2019-05-30T19:38:35.975Z,2.6
2019-05-30T19:40:36.130Z,2.9
2019-05-30T19:42:36.345Z,2.7
2019-05-30T19:44:41.639Z,2.8
2019-05-30T19:46:36.722Z,2.4
2019-05-30T19:48:36.738Z,3.1
2019-05-30T19:50:37.026Z,2.7
2019-05-30T19:52:37.079Z,2.5
2019-05-30T19:54:35.402Z,3.1
2019-05-30T19:56:41.584Z,2.3
2019-05-30T19:58:37.874Z,2.2
2019-05-30T20:02:34.165Z,2.4
2019-05-30T20:04:34.433Z,2.6
2019-05-30T20:06:38.981Z,2.6
2019-05-30T20:08:55.296Z,3
2019-05-30T20:10:37.479Z,2.2
2019-05-30T20:12:37.293Z,2.7
2019-05-30T20:14:37.381Z,2.4
2019-05-30T20:16:36.005Z,2.7
2019-05-30T20:18:35.809Z,2.3
2019-05-30T20:20:57.457Z,2.4
2019-05-30T20:22:36.570Z,2.8
2019-05-30T20:24:36.360Z,2.6
2019-05-30T20:26:36.869Z,3.2
2019-05-30T20:28:36.698Z,3
2019-05-30T20:30:37.302Z,2.8
2019-05-30T20:32:36.696Z,2.7
2019-05-30T20:34:36.934Z,2.7
2019-05-30T20:36:34.665Z,2.9
2019-05-30T20:38:36.746Z,3.2
2019-05-30T20:40:37.110Z,2.6
2019-05-30T20:42:36.952Z,3.2
2019-05-30T20:44:36.587Z,3
2019-05-30T20:46:37.273Z,2.9
2019-05-30T20:48:38.627Z,2.7
2019-05-30T20:50:36.751Z,3
2019-05-30T20:52:42.156Z,3.4
2019-05-30T20:54:37.473Z,3.2
2019-05-30T20:56:37.534Z,3.1
2019-05-30T20:58:37.454Z,3.2
2019-05-30T21:00:36.113Z,2.7
2019-05-30T21:02:36.976Z,3.3
2019-05-30T21:04:37.127Z,3.4
2019-05-30T21:06:36.853Z,3.3
2019-05-30T21:08:35.392Z,2.8
2019-05-30T21:10:35.322Z,2.7
2019-05-30T21:12:44.739Z,3.3
2019-05-30T21:14:37.535Z,3.2
2019-05-30T21:16:35.968Z,2.9
2019-05-30T21:18:35.871Z,3.1
2019-05-30T21:20:36.107Z,2.8
2019-05-30T21:24:36.604Z,3.7
2019-05-30T21:26:35.147Z,3.3
2019-05-30T21:28:36.850Z,2.7
2019-05-30T21:30:36.944Z,2.7
2019-05-30T21:32:39.214Z,2.8
2019-05-30T21:34:37.516Z,3
2019-05-30T21:36:36.129Z,3.6
2019-05-30T21:38:35.839Z,2.9
2019-05-30T21:40:35.567Z,3.2
2019-05-30T21:42:36.118Z,3.6
2019-05-30T21:44:35.900Z,3.3
2019-05-30T21:53:04.605Z,4.3
2019-05-30T21:54:35.270Z,3.9
2019-05-30T21:56:35.641Z,3.9
2019-05-30T21:58:36.090Z,4.3
2019-05-30T22:00:35.763Z,4.4
2019-05-30T22:02:36.167Z,4.5
2019-05-30T22:04:44.611Z,4.2
2019-05-30T22:06:51.228Z,4
2019-05-30T22:08:51.780Z,3.8
2019-05-30T22:10:35.321Z,3.5
2019-05-30T22:12:36.080Z,4.3
2019-05-30T22:14:35.666Z,4.9
2019-05-30T22:16:36.194Z,4.3
2019-05-30T22:18:35.805Z,5.4
2019-05-30T22:20:35.286Z,4.3
2019-05-30T22:22:35.705Z,4.3
2019-05-30T22:24:36.303Z,5
2019-05-30T22:26:35.894Z,4.6
2019-05-30T22:28:35.316Z,4.7
2019-05-30T22:30:35.852Z,5.7
2019-05-30T22:32:36.353Z,3.6
2019-05-30T22:34:35.945Z,3.1
2019-05-30T22:36:35.462Z,4.7
2019-05-30T22:38:36.023Z,6.3
2019-05-30T22:40:35.788Z,5.3
2019-05-30T22:42:36.259Z,5
2019-05-30T22:44:35.855Z,4.5
2019-05-30T22:46:35.427Z,6.6
2019-05-30T22:48:35.845Z,5.8
2019-05-30T22:50:36.485Z,4.5
2019-05-30T22:52:35.889Z,4.5
2019-05-30T22:54:36.510Z,5.5
2019-05-30T22:56:36.020Z,6.8
2019-05-30T22:58:35.554Z,5.6
2019-05-30T23:00:36.127Z,5.3
2019-05-30T23:02:36.646Z,8.4
2019-05-30T23:04:36.128Z,5.7
2019-05-30T23:06:35.626Z,4.2
2019-05-30T23:08:36.078Z,4.5
2019-05-30T23:10:35.751Z,4.4
2019-05-30T23:12:35.226Z,5.4
2019-05-30T23:14:35.762Z,5.6
2019-05-30T23:16:36.232Z,3.6
2019-05-30T23:18:35.791Z,4.6
2019-05-30T23:20:35.347Z,3.9
2019-05-30T23:22:35.785Z,4.1
2019-05-30T23:24:35.302Z,5.2
2019-05-30T23:26:35.825Z,4.5
2019-05-30T23:28:36.320Z,5.5
2019-05-30T23:30:35.863Z,4
2019-05-30T23:32:35.282Z,5.7
2019-05-30T23:34:36.051Z,3.4
2019-05-30T23:36:36.539Z,3.2
2019-05-30T23:38:36.007Z,3
2019-05-30T23:40:35.769Z,4.7
2019-05-30T23:42:35.210Z,4.9
2019-05-30T23:44:35.695Z,5
2019-05-30T23:46:36.243Z,4.5
2019-05-30T23:48:35.760Z,5.3
2019-05-30T23:50:35.302Z,3.6
2019-05-30T23:52:35.815Z,4
2019-05-30T23:54:35.342Z,3
2019-05-30T23:56:35.774Z,2.6
2019-05-30T23:58:35.234Z,2.6
